createdAt,value
2016-11-28T00:00:31.642Z,0
2016-11-28T00:01:31.050Z,0
2016-11-28T00:02:31.691Z,0
2016-11-28T00:03:31.716Z,0
2016-11-28T00:04:31.149Z,0
2016-11-28T00:05:31.758Z,0
2016-11-28T00:06:31.806Z,0
2016-11-28T00:07:31.827Z,0
2016-11-28T00:08:31.852Z,0
2016-11-28T00:09:31.576Z,0
2016-11-28T00:10:31.914Z,0
2016-11-28T00:11:31.642Z,0
2016-11-28T00:12:31.367Z,0
2016-11-28T00:13:31.994Z,0
2016-11-28T00:14:32.020Z,0
2016-11-28T00:15:31.741Z,0
2016-11-28T00:16:32.074Z,0
2016-11-28T00:17:31.502Z,0
2016-11-28T00:18:31.825Z,0
2016-11-28T00:19:31.852Z,0
2016-11-28T00:20:31.893Z,0
2016-11-28T00:21:31.606Z,0
2016-11-28T00:22:31.627Z,0
2016-11-28T00:23:31.963Z,0
2016-11-28T00:24:32.601Z,0
2016-11-28T00:25:32.649Z,0
2016-11-28T00:26:32.350Z,0
2016-11-28T00:27:32.066Z,0
2016-11-28T00:28:31.794Z,0
2016-11-28T00:29:32.127Z,0
2016-11-28T00:30:32.168Z,0
2016-11-28T00:31:32.481Z,0
2016-11-28T00:32:32.817Z,0
2016-11-28T00:33:32.543Z,0
2016-11-28T00:34:32.863Z,0
2016-11-28T00:35:32.896Z,0
2016-11-28T00:36:32.625Z,0
2016-11-28T00:37:32.997Z,0
2016-11-28T00:38:32.970Z,0
2016-11-28T00:39:32.387Z,0
2016-11-28T00:40:32.465Z,0
2016-11-28T00:41:32.757Z,0
2016-11-28T00:42:33.121Z,0
2016-11-28T00:43:32.506Z,0
2016-11-28T00:44:32.547Z,0
2016-11-28T00:45:32.567Z,0
2016-11-28T00:46:32.608Z,0
2016-11-28T00:47:32.345Z,0
2016-11-28T00:48:32.625Z,0
2016-11-28T00:49:32.990Z,0
2016-11-28T00:50:32.711Z,0
2016-11-28T00:51:32.715Z,0
2016-11-28T00:52:32.449Z,0
2016-11-28T00:53:33.093Z,0
2016-11-28T00:54:32.522Z,0
2016-11-28T00:55:32.851Z,0
2016-11-28T00:56:32.869Z,0
2016-11-28T00:57:33.204Z,0
2016-11-28T00:58:32.924Z,0
2016-11-28T00:59:32.649Z,0
2016-11-28T01:00:32.986Z,0
2016-11-28T01:01:33.598Z,0
2016-11-28T01:02:33.035Z,0
2016-11-28T01:03:33.043Z,0
2016-11-28T01:04:33.076Z,0
2016-11-28T01:05:32.503Z,0
2016-11-28T01:06:33.454Z,0
2016-11-28T01:07:33.467Z,0
2016-11-28T01:08:33.195Z,0
2016-11-28T01:09:33.835Z,0
2016-11-28T01:10:33.260Z,0
2016-11-28T01:11:32.982Z,0
2016-11-28T01:12:33.310Z,0
2016-11-28T01:13:32.723Z,0
2016-11-28T01:14:32.747Z,0
2016-11-28T01:15:33.384Z,0
2016-11-28T01:16:34.056Z,0
2016-11-28T01:17:33.745Z,0
2016-11-28T01:18:33.765Z,0
2016-11-28T01:19:33.786Z,0
2016-11-28T01:20:34.142Z,0
2016-11-28T01:21:33.251Z,0
2016-11-28T01:22:34.176Z,0
2016-11-28T01:23:33.597Z,0
2016-11-28T01:24:33.638Z,0
2016-11-28T01:25:33.662Z,0
2016-11-28T01:26:33.983Z,0
2016-11-28T01:27:34.019Z,0
2016-11-28T01:28:33.736Z,0
2016-11-28T01:29:34.077Z,0
2016-11-28T01:30:33.484Z,0
2016-11-28T01:31:33.220Z,0
2016-11-28T01:32:33.859Z,0
2016-11-28T01:33:33.870Z,0
2016-11-28T01:34:33.603Z,0
2016-11-28T01:35:34.229Z,0
2016-11-28T01:36:34.262Z,0
2016-11-28T01:37:33.974Z,0
2016-11-28T01:38:34.006Z,0
2016-11-28T01:39:34.345Z,0
2016-11-28T01:40:34.065Z,0
2016-11-28T01:41:34.091Z,0
2016-11-28T01:42:34.113Z,0
2016-11-28T01:43:34.450Z,0
2016-11-28T01:44:34.171Z,0
2016-11-28T01:45:34.508Z,0
2016-11-28T01:46:34.241Z,0
2016-11-28T01:47:34.261Z,0
2016-11-28T01:48:34.581Z,0
2016-11-28T01:49:34.630Z,0
2016-11-28T01:50:34.647Z,0
2016-11-28T01:51:34.376Z,0
2016-11-28T01:52:34.713Z,0
2016-11-28T01:53:34.725Z,0
2016-11-28T01:54:34.465Z,0
2016-11-28T01:55:34.171Z,0
2016-11-28T01:56:34.808Z,0
2016-11-28T01:57:34.848Z,0
2016-11-28T01:58:34.277Z,0
2016-11-28T01:59:34.602Z,0
2016-11-28T02:00:34.609Z,0
2016-11-28T02:01:34.655Z,0
2016-11-28T02:02:34.971Z,0
2016-11-28T02:03:35.016Z,0
2016-11-28T02:04:35.035Z,0
2016-11-28T02:05:34.794Z,0
2016-11-28T02:06:35.399Z,0
2016-11-28T02:07:35.131Z,0
2016-11-28T02:08:35.136Z,0
2016-11-28T02:09:34.556Z,0
2016-11-28T02:10:34.897Z,0
2016-11-28T02:11:35.226Z,0
2016-11-28T02:12:34.959Z,0
2016-11-28T02:13:35.275Z,0
2016-11-28T02:14:34.692Z,0
2016-11-28T02:15:35.045Z,0
2016-11-28T02:16:35.674Z,0
2016-11-28T02:17:34.515Z,0
2016-11-28T02:18:34.511Z,0
2016-11-28T02:19:35.463Z,0
2016-11-28T02:20:35.477Z,0
2016-11-28T02:21:35.494Z,0
2016-11-28T02:22:35.522Z,0
2016-11-28T02:23:35.578Z,0
2016-11-28T02:24:35.593Z,0
2016-11-28T02:25:35.013Z,0
2016-11-28T02:26:35.673Z,0
2016-11-28T02:27:35.058Z,0
2016-11-28T02:28:34.783Z,0
2016-11-28T02:29:36.038Z,0
2016-11-28T02:30:35.756Z,0
2016-11-28T02:31:35.478Z,0
2016-11-28T02:32:35.509Z,0
2016-11-28T02:33:35.227Z,0
2016-11-28T02:34:35.859Z,0
2016-11-28T02:35:35.576Z,0
2016-11-28T02:36:35.920Z,0
2016-11-28T02:37:35.637Z,0
2016-11-28T02:38:35.371Z,0
2016-11-28T02:39:35.987Z,0
2016-11-28T02:40:36.019Z,0
2016-11-28T02:41:35.768Z,0
2016-11-28T02:42:35.180Z,0
2016-11-28T02:43:36.110Z,0
2016-11-28T02:44:36.142Z,0
2016-11-28T02:45:35.551Z,0
2016-11-28T02:46:35.879Z,0
2016-11-28T02:47:36.229Z,0
2016-11-28T02:48:36.241Z,0
2016-11-28T02:49:36.266Z,0
2016-11-28T02:50:35.698Z,0
2016-11-28T02:51:35.724Z,0
2016-11-28T02:52:36.041Z,0
2016-11-28T02:53:36.380Z,0
2016-11-28T02:54:36.414Z,0
2016-11-28T02:55:35.822Z,0
2016-11-28T02:56:36.167Z,0
2016-11-28T02:57:35.598Z,0
2016-11-28T02:58:36.525Z,0
2016-11-28T02:59:36.558Z,0
2016-11-28T03:00:36.262Z,0
2016-11-28T03:01:36.595Z,0
2016-11-28T03:02:36.628Z,0
2016-11-28T03:03:36.972Z,0
2016-11-28T03:04:36.385Z,0
2016-11-28T03:05:37.010Z,0
2016-11-28T03:06:36.123Z,0
2016-11-28T03:07:36.168Z,0
2016-11-28T03:08:36.800Z,0
2016-11-28T03:09:36.504Z,0
2016-11-28T03:10:36.242Z,0
2016-11-28T03:11:37.186Z,0
2016-11-28T03:12:36.611Z,0
2016-11-28T03:13:36.924Z,0
2016-11-28T03:14:37.264Z,0
2016-11-28T03:15:37.282Z,0
2016-11-28T03:16:36.722Z,0
2016-11-28T03:17:36.743Z,0
2016-11-28T03:18:36.775Z,0
2016-11-28T03:19:37.100Z,0
2016-11-28T03:20:36.821Z,0
2016-11-28T03:21:36.853Z,0
2016-11-28T03:22:37.187Z,0
2016-11-28T03:23:36.910Z,0
2016-11-28T03:24:37.228Z,0
2016-11-28T03:25:37.257Z,0
2016-11-28T03:26:36.687Z,0
2016-11-28T03:27:37.019Z,0
2016-11-28T03:28:37.638Z,0
2016-11-28T03:29:36.767Z,0
2016-11-28T03:30:37.120Z,0
2016-11-28T03:31:36.821Z,0
2016-11-28T03:32:37.149Z,0
2016-11-28T03:33:37.506Z,0
2016-11-28T03:34:36.907Z,0
2016-11-28T03:35:36.935Z,0
2016-11-28T03:36:37.553Z,0
2016-11-28T03:37:37.594Z,0
2016-11-28T03:38:37.018Z,0
2016-11-28T03:39:37.339Z,0
2016-11-28T03:40:37.364Z,0
2016-11-28T03:41:37.400Z,0
2016-11-28T03:42:37.432Z,0
2016-11-28T03:43:37.754Z,0
2016-11-28T03:44:38.070Z,0
2016-11-28T03:45:37.495Z,0
2016-11-28T03:46:37.531Z,0
2016-11-28T03:47:37.565Z,0
2016-11-28T03:48:37.588Z,0
2016-11-28T03:49:37.310Z,0
2016-11-28T03:50:37.946Z,0
2016-11-28T03:51:37.662Z,0
2016-11-28T03:52:37.688Z,0
2016-11-28T03:53:38.024Z,0
2016-11-28T03:54:38.353Z,0
2016-11-28T03:55:37.781Z,0
2016-11-28T03:56:37.798Z,0
2016-11-28T03:57:37.827Z,0
2016-11-28T03:58:38.162Z,0
2016-11-28T03:59:37.881Z,0
2016-11-28T04:00:38.530Z,0
2016-11-28T04:01:37.645Z,0
2016-11-28T04:02:37.667Z,0
2016-11-28T04:03:38.004Z,0
2016-11-28T04:04:38.316Z,0
2016-11-28T04:05:38.650Z,0
2016-11-28T04:06:38.090Z,0
2016-11-28T04:07:38.107Z,0
2016-11-28T04:08:38.436Z,0
2016-11-28T04:09:38.156Z,0
2016-11-28T04:10:38.489Z,0
2016-11-28T04:11:37.913Z,0
2016-11-28T04:12:38.246Z,0
2016-11-28T04:13:39.203Z,0
2016-11-28T04:14:38.291Z,0
2016-11-28T04:15:38.929Z,0
2016-11-28T04:16:38.367Z,0
2016-11-28T04:17:38.095Z,0
2016-11-28T04:18:38.403Z,0
2016-11-28T04:19:38.128Z,0
2016-11-28T04:20:38.769Z,0
2016-11-28T04:21:38.489Z,0
2016-11-28T04:22:38.809Z,0
2016-11-28T04:23:38.842Z,0
2016-11-28T04:24:38.263Z,0
2016-11-28T04:25:38.584Z,0
2016-11-28T04:26:38.936Z,0
2016-11-28T04:27:38.661Z,0
2016-11-28T04:28:38.983Z,0
2016-11-28T04:29:38.999Z,0
2016-11-28T04:30:38.120Z,0
2016-11-28T04:31:38.744Z,0
2016-11-28T04:32:38.784Z,0
2016-11-28T04:33:39.125Z,0
2016-11-28T04:34:38.890Z,0
2016-11-28T04:35:38.867Z,0
2016-11-28T04:36:38.904Z,0
2016-11-28T04:37:38.632Z,0
2016-11-28T04:38:39.565Z,0
2016-11-28T04:39:38.973Z,0
2016-11-28T04:40:39.002Z,0
2016-11-28T04:41:39.038Z,0
2016-11-28T04:42:39.071Z,0
2016-11-28T04:43:38.792Z,0
2016-11-28T04:44:39.116Z,0
2016-11-28T04:45:39.142Z,0
2016-11-28T04:46:39.478Z,0
2016-11-28T04:47:39.203Z,0
2016-11-28T04:48:38.615Z,0
2016-11-28T04:49:38.643Z,0
2016-11-28T04:50:39.596Z,0
2016-11-28T04:51:39.912Z,0
2016-11-28T04:52:39.339Z,0
2016-11-28T04:53:39.967Z,0
2016-11-28T04:54:39.380Z,0
2016-11-28T04:55:39.723Z,0
2016-11-28T04:56:39.757Z,0
2016-11-28T04:57:38.874Z,0
2016-11-28T04:58:39.498Z,0
2016-11-28T04:59:39.842Z,0
2016-11-28T05:00:39.852Z,0
2016-11-28T05:01:39.883Z,0
2016-11-28T05:02:39.909Z,0
2016-11-28T05:03:40.242Z,0
2016-11-28T05:04:39.663Z,0
2016-11-28T05:05:40.003Z,0
2016-11-28T05:06:39.716Z,0
2016-11-28T05:07:40.037Z,0
2016-11-28T05:08:39.769Z,0
2016-11-28T05:09:39.799Z,0
2016-11-28T05:10:39.831Z,0
2016-11-28T05:11:39.832Z,0
2016-11-28T05:12:39.877Z,0
2016-11-28T05:13:40.517Z,0
2016-11-28T05:14:39.658Z,0
2016-11-28T05:15:40.562Z,0
2016-11-28T05:16:40.291Z,0
2016-11-28T05:17:40.321Z,0
2016-11-28T05:18:40.057Z,0
2016-11-28T05:19:39.785Z,0
2016-11-28T05:20:39.794Z,0
2016-11-28T05:21:40.124Z,0
2016-11-28T05:22:39.882Z,0
2016-11-28T05:23:39.877Z,0
2016-11-28T05:24:40.205Z,0
2016-11-28T05:25:39.926Z,0
2016-11-28T05:26:40.251Z,0
2016-11-28T05:27:40.292Z,0
2016-11-28T05:28:40.016Z,0
2016-11-28T05:29:40.648Z,0
2016-11-28T05:30:40.673Z,0
2016-11-28T05:31:40.714Z,0
2016-11-28T05:32:40.715Z,0
2016-11-28T05:33:39.860Z,0
2016-11-28T05:34:40.481Z,0
2016-11-28T05:35:40.814Z,0
2016-11-28T05:36:40.530Z,0
2016-11-28T05:37:40.569Z,0
2016-11-28T05:38:40.888Z,0
2016-11-28T05:39:41.212Z,0
2016-11-28T05:40:40.938Z,0
2016-11-28T05:41:41.261Z,0
2016-11-28T05:42:40.683Z,0
2016-11-28T05:43:40.723Z,0
2016-11-28T05:44:40.756Z,0
2016-11-28T05:45:40.783Z,0
2016-11-28T05:46:41.106Z,0
2016-11-28T05:47:41.446Z,0
2016-11-28T05:48:41.172Z,0
2016-11-28T05:49:41.192Z,0
2016-11-28T05:50:40.909Z,0
2016-11-28T05:51:40.933Z,0
2016-11-28T05:52:41.594Z,0
2016-11-28T05:53:40.702Z,0
2016-11-28T05:54:41.051Z,0
2016-11-28T05:55:41.345Z,0
2016-11-28T05:56:40.777Z,0
2016-11-28T05:57:41.410Z,0
2016-11-28T05:58:41.126Z,0
2016-11-28T05:59:41.159Z,0
2016-11-28T06:00:41.480Z,0
2016-11-28T06:01:41.517Z,0
2016-11-28T06:02:41.834Z,0
2016-11-28T06:03:41.263Z,0
2016-11-28T06:04:41.891Z,0
2016-11-28T06:05:41.944Z,0
2016-11-28T06:06:41.653Z,0
2016-11-28T06:07:41.686Z,0
2016-11-28T06:08:41.402Z,0
2016-11-28T06:09:41.419Z,0
2016-11-28T06:10:41.456Z,0
2016-11-28T06:11:41.176Z,0
2016-11-28T06:12:41.210Z,0
2016-11-28T06:13:41.834Z,0
2016-11-28T06:14:41.871Z,0
2016-11-28T06:15:41.911Z,0
2016-11-28T06:16:41.661Z,0
2016-11-28T06:17:41.669Z,0
2016-11-28T06:18:42.278Z,0
2016-11-28T06:19:41.710Z,0
2016-11-28T06:20:42.044Z,0
2016-11-28T06:21:41.452Z,0
2016-11-28T06:22:42.085Z,0
2016-11-28T06:23:42.115Z,0
2016-11-28T06:24:42.122Z,0
2016-11-28T06:25:41.260Z,0
2016-11-28T06:26:41.896Z,0
2016-11-28T06:27:42.217Z,0
2016-11-28T06:28:42.549Z,0
2016-11-28T06:29:41.966Z,0
2016-11-28T06:30:42.020Z,0
2016-11-28T06:31:42.668Z,0
2016-11-28T06:32:42.361Z,0
2016-11-28T06:33:42.085Z,0
2016-11-28T06:34:41.494Z,0
2016-11-28T06:35:42.143Z,0
2016-11-28T06:36:42.164Z,0
2016-11-28T06:37:42.192Z,0
2016-11-28T06:38:42.512Z,0
2016-11-28T06:39:42.557Z,0
2016-11-28T06:40:42.266Z,0
2016-11-28T06:41:42.600Z,0
2016-11-28T06:42:42.655Z,0
2016-11-28T06:43:42.661Z,0
2016-11-28T06:44:42.681Z,0
2016-11-28T06:45:42.410Z,0
2016-11-28T06:46:42.423Z,0
2016-11-28T06:47:42.452Z,0
2016-11-28T06:48:43.089Z,0
2016-11-28T06:49:43.133Z,0
2016-11-28T06:50:42.542Z,0
2016-11-28T06:51:42.875Z,0
2016-11-28T06:52:42.900Z,0
2016-11-28T06:53:43.232Z,0
2016-11-28T06:54:42.955Z,0
2016-11-28T06:55:42.682Z,0
2016-11-28T06:56:42.431Z,0
2016-11-28T06:57:42.471Z,0
2016-11-28T06:58:43.060Z,0
2016-11-28T06:59:42.785Z,0
2016-11-28T07:00:42.805Z,0
2016-11-28T07:01:42.548Z,0
2016-11-28T07:02:42.868Z,0
2016-11-28T07:03:42.895Z,0
2016-11-28T07:04:42.915Z,0
2016-11-28T07:05:43.262Z,0
2016-11-28T07:06:43.583Z,0
2016-11-28T07:07:43.315Z,0
2016-11-28T07:08:43.025Z,0
2016-11-28T07:09:43.358Z,0
2016-11-28T07:10:43.082Z,0
2016-11-28T07:11:43.427Z,0
2016-11-28T07:12:43.443Z,0
2016-11-28T07:13:43.480Z,0
2016-11-28T07:14:42.885Z,0
2016-11-28T07:15:43.821Z,0
2016-11-28T07:16:42.634Z,0
2016-11-28T07:17:42.967Z,0
2016-11-28T07:18:43.596Z,0
2016-11-28T07:19:43.636Z,0
2016-11-28T07:20:43.423Z,0
2016-11-28T07:21:43.972Z,0
2016-11-28T07:22:42.815Z,0
2016-11-28T07:23:43.747Z,0
2016-11-28T07:24:43.472Z,0
2016-11-28T07:25:43.812Z,0
2016-11-28T07:26:43.213Z,0
2016-11-28T07:27:43.554Z,0
2016-11-28T07:28:44.171Z,0
2016-11-28T07:29:43.307Z,0
2016-11-28T07:30:43.915Z,0
2016-11-28T07:31:43.655Z,0
2016-11-28T07:32:44.282Z,0
2016-11-28T07:33:44.012Z,0
2016-11-28T07:34:44.019Z,0
2016-11-28T07:35:43.764Z,0
2016-11-28T07:36:44.093Z,0
2016-11-28T07:37:44.437Z,0
2016-11-28T07:38:44.147Z,0
2016-11-28T07:39:44.467Z,0
2016-11-28T07:40:44.201Z,0
2016-11-28T07:41:44.521Z,0
2016-11-28T07:42:44.288Z,0
2016-11-28T07:43:44.274Z,0
2016-11-28T07:44:44.607Z,5
2016-11-28T07:45:44.027Z,5
2016-11-28T07:46:44.376Z,5
2016-11-28T07:47:44.089Z,5
2016-11-28T07:48:44.117Z,5
2016-11-28T07:49:44.446Z,5
2016-11-28T07:50:44.159Z,5
2016-11-28T07:51:44.188Z,5
2016-11-28T07:52:44.516Z,5
2016-11-28T07:53:44.253Z,5
2016-11-28T07:54:44.267Z,5
2016-11-28T07:55:43.686Z,5
2016-11-28T07:56:44.323Z,5
2016-11-28T07:57:44.049Z,5
2016-11-28T07:58:44.685Z,5
2016-11-28T07:59:44.426Z,5
2016-11-28T08:00:44.158Z,5
2016-11-28T08:01:44.751Z,5
2016-11-28T08:02:45.086Z,5
2016-11-28T08:03:44.812Z,5
2016-11-28T08:04:44.526Z,5
2016-11-28T08:05:44.287Z,5
2016-11-28T08:06:44.632Z,5
2016-11-28T08:07:44.932Z,5
2016-11-28T08:08:44.953Z,5
2016-11-28T08:09:44.661Z,10
2016-11-28T08:10:44.698Z,10
2016-11-28T08:11:44.431Z,15
2016-11-28T08:12:45.360Z,15
2016-11-28T08:13:45.096Z,20
2016-11-28T08:14:44.505Z,25
2016-11-28T08:15:44.870Z,25
2016-11-28T08:16:45.178Z,30
2016-11-28T08:17:44.583Z,30
2016-11-28T08:18:45.220Z,30
2016-11-28T08:19:44.941Z,30
2016-11-28T08:20:45.273Z,30
2016-11-28T08:21:45.318Z,35
2016-11-28T08:22:45.046Z,35
2016-11-28T08:23:45.352Z,30
2016-11-28T08:24:45.384Z,35
2016-11-28T08:25:45.405Z,35
2016-11-28T08:26:44.521Z,35
2016-11-28T08:27:45.158Z,35
2016-11-28T08:28:45.195Z,35
2016-11-28T08:29:44.908Z,35
2016-11-28T08:30:45.545Z,35
2016-11-28T08:31:45.565Z,35
2016-11-28T08:32:45.910Z,35
2016-11-28T08:33:45.926Z,35
2016-11-28T08:34:45.661Z,35
2016-11-28T08:35:45.411Z,35
2016-11-28T08:36:45.437Z,35
2016-11-28T08:37:45.438Z,35
2016-11-28T08:38:44.864Z,35
2016-11-28T08:39:45.506Z,35
2016-11-28T08:40:45.516Z,35
2016-11-28T08:41:45.239Z,35
2016-11-28T08:42:45.877Z,35
2016-11-28T08:43:45.597Z,35
2016-11-28T08:44:45.339Z,35
2016-11-28T08:45:46.280Z,35
2016-11-28T08:46:45.988Z,35
2016-11-28T08:47:45.698Z,35
2016-11-28T08:48:46.341Z,35
2016-11-28T08:49:45.462Z,35
2016-11-28T08:50:45.791Z,30
2016-11-28T08:51:45.221Z,30
2016-11-28T08:52:45.535Z,30
2016-11-28T08:53:45.857Z,30
2016-11-28T08:54:46.194Z,30
2016-11-28T08:55:45.614Z,30
2016-11-28T08:56:45.943Z,30
2016-11-28T08:57:45.676Z,30
2016-11-28T08:58:46.313Z,30
2016-11-28T08:59:46.045Z,30
2016-11-28T09:00:46.365Z,30
2016-11-28T09:01:46.127Z,30
2016-11-28T09:02:45.818Z,30
2016-11-28T09:03:46.760Z,30
2016-11-28T09:04:46.473Z,30
2016-11-28T09:05:46.210Z,30
2016-11-28T09:06:46.538Z,30
2016-11-28T09:07:46.863Z,30
2016-11-28T09:08:46.588Z,30
2016-11-28T09:09:46.950Z,30
2016-11-28T09:10:46.645Z,30
2016-11-28T09:11:46.666Z,30
2016-11-28T09:12:46.993Z,30
2016-11-28T09:13:46.122Z,30
2016-11-28T09:14:46.452Z,30
2016-11-28T09:15:46.468Z,30
2016-11-28T09:16:46.196Z,30
2016-11-28T09:17:47.138Z,30
2016-11-28T09:18:46.858Z,25
2016-11-28T09:19:46.882Z,25
2016-11-28T09:20:46.919Z,25
2016-11-28T09:21:46.657Z,25
2016-11-28T09:22:46.672Z,25
2016-11-28T09:23:46.699Z,25
2016-11-28T09:24:46.430Z,20
2016-11-28T09:25:47.058Z,20
2016-11-28T09:26:47.389Z,20
2016-11-28T09:27:47.101Z,20
2016-11-28T09:28:46.848Z,20
2016-11-28T09:29:47.477Z,20
2016-11-28T09:30:46.923Z,15
2016-11-28T09:31:46.926Z,15
2016-11-28T09:32:46.639Z,15
2016-11-28T09:33:47.619Z,15
2016-11-28T09:34:47.620Z,15
2016-11-28T09:35:47.328Z,15
2016-11-28T09:36:46.762Z,15
2016-11-28T09:37:47.094Z,15
2016-11-28T09:38:47.114Z,15
2016-11-28T09:39:47.451Z,15
2016-11-28T09:40:47.472Z,15
2016-11-28T09:41:46.597Z,15
2016-11-28T09:42:46.905Z,10
2016-11-28T09:43:47.870Z,10
2016-11-28T09:44:47.896Z,10
2016-11-28T09:45:47.611Z,10
2016-11-28T09:46:47.635Z,10
2016-11-28T09:47:47.684Z,10
2016-11-28T09:48:47.689Z,10
2016-11-28T09:49:47.419Z,10
2016-11-28T09:50:47.739Z,10
2016-11-28T09:51:48.084Z,15
2016-11-28T09:52:47.187Z,15
2016-11-28T09:53:48.136Z,15
2016-11-28T09:54:47.250Z,15
2016-11-28T09:55:47.587Z,15
2016-11-28T09:56:48.223Z,15
2016-11-28T09:57:47.335Z,15
2016-11-28T09:58:47.664Z,15
2016-11-28T09:59:48.009Z,15
2016-11-28T10:00:48.026Z,20
2016-11-28T10:01:48.344Z,20
2016-11-28T10:02:47.783Z,20
2016-11-28T10:03:47.804Z,20
2016-11-28T10:04:47.836Z,25
2016-11-28T10:05:48.177Z,25
2016-11-28T10:06:48.174Z,10
2016-11-28T10:07:47.911Z,25
2016-11-28T10:08:48.247Z,25
2016-11-28T10:09:48.265Z,25
2016-11-28T10:10:48.293Z,25
2016-11-28T10:11:48.018Z,30
2016-11-28T10:12:48.053Z,30
2016-11-28T10:13:48.386Z,30
2016-11-28T10:14:48.396Z,30
2016-11-28T10:15:47.824Z,30
2016-11-28T10:16:48.472Z,30
2016-11-28T10:17:48.497Z,30
2016-11-28T10:18:48.226Z,10
2016-11-28T10:19:48.535Z,10
2016-11-28T10:20:48.285Z,35
2016-11-28T10:21:48.593Z,30
2016-11-28T10:22:48.623Z,20
2016-11-28T10:23:48.359Z,20
2016-11-28T10:24:48.666Z,20
2016-11-28T10:25:48.719Z,10
2016-11-28T10:26:48.740Z,20
2016-11-28T10:27:48.460Z,10
2016-11-28T10:28:48.489Z,10
2016-11-28T10:29:48.810Z,20
2016-11-28T10:30:48.845Z,20
2016-11-28T10:31:49.163Z,20
2016-11-28T10:32:48.888Z,15
2016-11-28T10:33:48.945Z,20
2016-11-28T10:34:48.973Z,15
2016-11-28T10:35:48.671Z,15
2016-11-28T10:36:48.715Z,20
2016-11-28T10:37:48.428Z,25
2016-11-28T10:38:49.077Z,10
2016-11-28T10:39:48.804Z,15
2016-11-28T10:40:48.818Z,15
2016-11-28T10:41:49.154Z,15
2016-11-28T10:42:49.168Z,15
2016-11-28T10:43:48.899Z,15
2016-11-28T10:44:49.953Z,15
2016-11-28T10:45:48.950Z,20
2016-11-28T10:46:49.291Z,20
2016-11-28T10:47:49.324Z,20
2016-11-28T10:48:49.035Z,20
2016-11-28T10:49:49.054Z,10
2016-11-28T10:50:49.393Z,10
2016-11-28T10:51:49.428Z,15
2016-11-28T10:52:49.143Z,15
2016-11-28T10:54:07.840Z,10
2016-11-28T10:54:49.508Z,15
2016-11-28T10:55:49.545Z,15
2016-11-28T10:56:48.954Z,15
2016-11-28T10:57:49.919Z,15
2016-11-28T10:58:49.627Z,20
2016-11-28T10:59:49.684Z,20
2016-11-28T11:00:49.381Z,20
2016-11-28T11:01:49.406Z,20
2016-11-28T11:03:07.106Z,20
2016-11-28T11:03:49.455Z,20
2016-11-28T11:04:49.796Z,20
2016-11-28T11:05:49.224Z,15
2016-11-28T11:06:49.239Z,20
2016-11-28T11:07:49.260Z,15
2016-11-28T11:08:49.591Z,20
2016-11-28T11:09:49.328Z,20
2016-11-28T11:10:49.654Z,10
2016-11-28T11:11:49.991Z,20
2016-11-28T11:12:49.710Z,20
2016-11-28T11:13:49.439Z,25
2016-11-28T11:14:49.760Z,20
2016-11-28T11:15:50.408Z,20
2016-11-28T11:16:50.130Z,15
2016-11-28T11:17:49.850Z,20
2016-11-28T11:18:49.595Z,20
2016-11-28T11:19:49.607Z,20
2016-11-28T11:20:50.237Z,20
2016-11-28T11:21:50.265Z,20
2016-11-28T11:22:50.598Z,20
2016-11-28T11:23:50.012Z,20
2016-11-28T11:24:50.635Z,20
2016-11-28T11:25:50.677Z,20
2016-11-28T11:26:50.394Z,20
2016-11-28T11:27:50.125Z,25
2016-11-28T11:28:50.451Z,25
2016-11-28T11:29:50.796Z,20
2016-11-28T11:30:50.209Z,20
2016-11-28T11:31:50.845Z,25
2016-11-28T11:32:50.582Z,10
2016-11-28T11:33:50.611Z,20
2016-11-28T11:34:50.635Z,20
2016-11-28T11:35:50.655Z,15
2016-11-28T11:36:50.077Z,15
2016-11-28T11:37:50.722Z,15
2016-11-28T11:38:50.435Z,15
2016-11-28T11:39:50.167Z,15
2016-11-28T11:40:50.792Z,15
2016-11-28T11:41:50.827Z,15
2016-11-28T11:42:50.542Z,15
2016-11-28T11:43:50.891Z,15
2016-11-28T11:44:50.604Z,15
2016-11-28T11:45:51.241Z,15
2016-11-28T11:46:50.652Z,15
2016-11-28T11:47:50.998Z,15
2016-11-28T11:48:50.719Z,15
2016-11-28T11:49:50.748Z,15
2016-11-28T11:50:50.764Z,10
2016-11-28T11:51:50.500Z,10
2016-11-28T11:52:50.817Z,10
2016-11-28T11:53:50.854Z,10
2016-11-28T11:54:50.882Z,10
2016-11-28T11:55:50.631Z,10
2016-11-28T11:56:50.939Z,10
2016-11-28T11:57:50.970Z,10
2016-11-28T11:58:51.302Z,10
2016-11-28T11:59:51.042Z,10
2016-11-28T12:00:51.048Z,10
2016-11-28T12:01:50.772Z,10
2016-11-28T12:02:50.817Z,10
2016-11-28T12:03:50.541Z,10
2016-11-28T12:04:51.466Z,10
2016-11-28T12:05:51.178Z,10
2016-11-28T12:06:51.816Z,10
2016-11-28T12:07:51.241Z,10
2016-11-28T12:08:51.277Z,10
2016-11-28T12:09:51.597Z,10
2016-11-28T12:10:51.331Z,10
2016-11-28T12:11:51.659Z,10
2016-11-28T12:12:51.368Z,10
2016-11-28T12:13:51.721Z,10
2016-11-28T12:14:51.433Z,10
2016-11-28T12:15:51.778Z,10
2016-11-28T12:16:51.791Z,10
2016-11-28T12:17:51.832Z,10
2016-11-28T12:18:51.553Z,10
2016-11-28T12:19:51.882Z,10
2016-11-28T12:20:51.003Z,10
2016-11-28T12:21:51.948Z,10
2016-11-28T12:22:52.000Z,10
2016-11-28T12:23:51.092Z,10
2016-11-28T12:24:51.710Z,10
2016-11-28T12:25:52.054Z,10
2016-11-28T12:26:52.079Z,10
2016-11-28T12:27:51.799Z,10
2016-11-28T12:28:51.829Z,10
2016-11-28T12:29:52.193Z,10
2016-11-28T12:30:52.195Z,10
2016-11-28T12:31:52.199Z,10
2016-11-28T12:32:51.627Z,10
2016-11-28T12:33:52.277Z,10
2016-11-28T12:34:52.597Z,10
2016-11-28T12:35:52.322Z,10
2016-11-28T12:36:51.438Z,10
2016-11-28T12:37:52.095Z,10
2016-11-28T12:38:52.717Z,10
2016-11-28T12:39:52.145Z,10
2016-11-28T12:40:52.154Z,10
2016-11-28T12:41:52.182Z,10
2016-11-28T12:42:52.539Z,10
2016-11-28T12:43:51.944Z,10
2016-11-28T12:44:52.576Z,10
2016-11-28T12:45:52.313Z,10
2016-11-28T12:46:52.670Z,10
2016-11-28T12:47:52.366Z,10
2016-11-28T12:48:52.411Z,10
2016-11-28T12:49:52.720Z,10
2016-11-28T12:50:52.442Z,10
2016-11-28T12:51:52.782Z,10
2016-11-28T12:52:52.227Z,5
2016-11-28T12:53:52.516Z,5
2016-11-28T12:54:52.264Z,5
2016-11-28T12:55:52.921Z,5
2016-11-28T12:56:52.939Z,5
2016-11-28T12:57:52.342Z,5
2016-11-28T12:58:52.975Z,5
2016-11-28T12:59:53.011Z,5
2016-11-28T13:00:53.336Z,5
2016-11-28T13:01:52.470Z,5
2016-11-28T13:02:52.802Z,5
2016-11-28T13:03:52.827Z,5
2016-11-28T13:04:53.143Z,5
2016-11-28T13:05:53.208Z,5
2016-11-28T13:06:52.585Z,5
2016-11-28T13:07:53.226Z,5
2016-11-28T13:08:53.247Z,5
2016-11-28T13:09:53.288Z,5
2016-11-28T13:10:53.316Z,5
2016-11-28T13:11:53.046Z,5
2016-11-28T13:12:52.766Z,5
2016-11-28T13:13:53.399Z,5
2016-11-28T13:14:53.116Z,5
2016-11-28T13:15:53.453Z,5
2016-11-28T13:16:53.185Z,5
2016-11-28T13:17:53.518Z,5
2016-11-28T13:18:53.231Z,5
2016-11-28T13:19:53.571Z,5
2016-11-28T13:20:53.588Z,5
2016-11-28T13:21:53.613Z,5
2016-11-28T13:22:53.049Z,5
2016-11-28T13:23:53.974Z,5
2016-11-28T13:24:53.399Z,5
2016-11-28T13:25:54.036Z,5
2016-11-28T13:26:53.462Z,5
2016-11-28T13:27:53.173Z,5
2016-11-28T13:28:53.202Z,5
2016-11-28T13:29:53.854Z,5
2016-11-28T13:30:54.184Z,5
2016-11-28T13:31:53.304Z,5
2016-11-28T13:32:53.625Z,5
2016-11-28T13:33:54.250Z,5
2016-11-28T13:34:53.371Z,5
2016-11-28T13:35:54.328Z,5
2016-11-28T13:36:54.044Z,5
2016-11-28T13:37:53.785Z,5
2016-11-28T13:38:54.094Z,5
2016-11-28T13:39:54.116Z,5
2016-11-28T13:40:53.844Z,5
2016-11-28T13:41:54.193Z,5
2016-11-28T13:42:53.908Z,5
2016-11-28T13:43:54.251Z,5
2016-11-28T13:44:53.974Z,5
2016-11-28T13:45:53.993Z,5
2016-11-28T13:46:54.324Z,5
2016-11-28T13:47:54.649Z,5
2016-11-28T13:48:54.366Z,5
2016-11-28T13:49:54.099Z,5
2016-11-28T13:50:54.121Z,5
2016-11-28T13:51:54.791Z,5
2016-11-28T13:52:53.581Z,5
2016-11-28T13:53:53.901Z,5
2016-11-28T13:54:54.531Z,5
2016-11-28T13:55:53.975Z,5
2016-11-28T13:56:54.024Z,5
2016-11-28T13:57:54.021Z,5
2016-11-28T13:58:54.342Z,5
2016-11-28T13:59:54.694Z,5
2016-11-28T14:00:54.415Z,5
2016-11-28T14:01:55.052Z,5
2016-11-28T14:02:54.464Z,5
2016-11-28T14:03:55.105Z,5
2016-11-28T14:04:54.820Z,5
2016-11-28T14:05:55.162Z,5
2016-11-28T14:06:54.863Z,5
2016-11-28T14:07:54.927Z,5
2016-11-28T14:08:55.225Z,5
2016-11-28T14:09:54.989Z,5
2016-11-28T14:10:54.978Z,5
2016-11-28T14:11:55.012Z,5
2016-11-28T14:12:54.739Z,5
2016-11-28T14:13:55.113Z,5
2016-11-28T14:14:55.097Z,5
2016-11-28T14:15:54.530Z,5
2016-11-28T14:16:54.551Z,5
2016-11-28T14:17:54.895Z,5
2016-11-28T14:18:55.224Z,5
2016-11-28T14:19:55.542Z,5
2016-11-28T14:20:55.265Z,5
2016-11-28T14:21:54.686Z,5
2016-11-28T14:22:55.320Z,5
2016-11-28T14:23:55.040Z,5
2016-11-28T14:24:55.684Z,5
2016-11-28T14:25:55.125Z,5
2016-11-28T14:26:55.443Z,5
2016-11-28T14:27:55.160Z,5
2016-11-28T14:28:59.851Z,5
2016-11-28T14:29:55.833Z,5
2016-11-28T14:30:54.941Z,0
2016-11-28T14:31:55.585Z,0
2016-11-28T14:32:55.595Z,0
2016-11-28T14:33:55.327Z,0
2016-11-28T14:34:55.657Z,0
2016-11-28T14:35:56.006Z,0
2016-11-28T14:36:55.413Z,0